createdAt,value
2023-04-05T00:00:37.873Z,3.69
2023-04-05T00:03:13.258Z,3.69
2023-04-05T00:05:44.567Z,3.70
2023-04-05T00:08:23.854Z,3.69
2023-04-05T00:10:55.162Z,3.62
2023-04-05T00:13:23.930Z,3.64
2023-04-05T00:15:59.882Z,3.63
2023-04-05T00:18:36.170Z,3.67
2023-04-05T00:21:06.185Z,3.66
2023-04-05T00:23:39.921Z,3.61
2023-04-05T00:26:11.861Z,3.59
2023-04-05T00:28:43.115Z,3.61
2023-04-05T00:31:13.799Z,3.55
2023-04-05T00:33:43.121Z,3.51
2023-04-05T00:36:13.250Z,3.50
2023-04-05T00:38:44.664Z,3.50
2023-04-05T00:41:16.535Z,3.42
2023-04-05T00:43:47.172Z,3.40
2023-04-05T00:46:18.415Z,3.41
2023-04-05T00:48:48.993Z,3.44
2023-04-05T00:51:17.519Z,3.39
2023-04-05T00:53:48.574Z,3.39
2023-04-05T00:56:17.324Z,3.41
2023-04-05T00:58:52.431Z,3.40
2023-04-05T01:01:22.962Z,3.34
2023-04-05T01:04:00.165Z,3.38
2023-04-05T01:06:42.277Z,3.39
2023-04-05T01:09:26.144Z,3.35
2023-04-05T01:11:56.217Z,3.42
2023-04-05T01:14:26.952Z,3.45
2023-04-05T01:16:58.857Z,3.44
2023-04-05T01:19:38.344Z,3.42
2023-04-05T01:22:46.533Z,3.46
2023-04-05T01:25:57.421Z,3.44
2023-04-05T01:29:05.035Z,3.38
2023-04-05T01:31:51.137Z,3.40
2023-04-05T01:34:45.857Z,3.40
2023-04-05T01:37:16.009Z,3.46
2023-04-05T01:39:51.902Z,3.43
2023-04-05T01:42:27.924Z,3.45
2023-04-05T01:45:00.125Z,3.45
2023-04-05T01:47:35.394Z,3.37
2023-04-05T01:50:03.901Z,3.33
2023-04-05T01:52:37.033Z,3.38
2023-04-05T01:55:10.207Z,3.42
2023-04-05T01:57:40.073Z,3.39
2023-04-05T02:00:13.401Z,3.44
2023-04-05T02:02:42.477Z,3.48
2023-04-05T02:05:10.784Z,3.43
2023-04-05T02:07:40.382Z,3.42
2023-04-05T02:10:09.138Z,3.42
2023-04-05T02:12:37.653Z,3.45
2023-04-05T02:15:07.890Z,3.43
2023-04-05T02:17:40.195Z,3.44
2023-04-05T02:20:09.184Z,3.44
2023-04-05T02:22:42.489Z,3.38
2023-04-05T02:25:10.725Z,3.39
2023-04-05T02:27:44.483Z,3.44
2023-04-05T02:30:14.273Z,3.43
2023-04-05T02:32:47.325Z,3.41
2023-04-05T02:35:18.499Z,3.45
2023-04-05T02:37:48.867Z,3.48
2023-04-05T02:40:17.169Z,3.45
2023-04-05T02:42:45.217Z,3.47
2023-04-05T02:45:14.477Z,3.53
2023-04-05T02:47:43.801Z,3.53
2023-04-05T02:50:12.708Z,3.49
2023-04-05T02:52:48.463Z,3.50
2023-04-05T02:55:16.707Z,3.49
2023-04-05T02:57:46.870Z,3.42
2023-04-05T03:00:32.648Z,3.45
2023-04-05T03:03:01.771Z,3.48
2023-04-05T03:05:30.410Z,3.48
2023-04-05T03:08:02.316Z,3.54
2023-04-05T03:10:36.362Z,3.60
2023-04-05T03:13:14.604Z,3.59
2023-04-05T03:15:44.403Z,3.55
2023-04-05T03:18:14.729Z,3.52
2023-04-05T03:20:50.441Z,3.48
2023-04-05T03:23:21.934Z,3.50
2023-04-05T03:25:57.204Z,3.53
2023-04-05T03:28:25.828Z,3.56
2023-04-05T03:30:54.956Z,3.56
2023-04-05T03:33:23.471Z,3.60
2023-04-05T03:35:53.996Z,3.65
2023-04-05T03:38:24.163Z,3.66
2023-04-05T03:41:06.801Z,3.66
2023-04-05T03:43:37.025Z,3.59
2023-04-05T03:46:05.016Z,3.54
2023-04-05T03:48:34.739Z,3.54
2023-04-05T03:51:03.776Z,3.52
2023-04-05T03:53:33.048Z,3.49
2023-04-05T03:56:01.799Z,3.50
2023-04-05T03:58:41.782Z,3.49
2023-04-05T04:01:10.847Z,3.49
2023-04-05T04:03:40.417Z,3.53
2023-04-05T04:06:08.930Z,3.54
2023-04-05T04:08:39.522Z,3.49
2023-04-05T04:11:08.456Z,3.47
2023-04-05T04:13:40.514Z,3.50
2023-04-05T04:16:20.813Z,3.53
2023-04-05T04:19:21.771Z,3.47
2023-04-05T04:22:10.386Z,3.48
2023-04-05T04:25:19.042Z,3.49
2023-04-05T04:28:00.471Z,3.46
2023-04-05T04:30:47.541Z,3.49
2023-04-05T04:33:35.885Z,3.52
2023-04-05T04:36:36.344Z,3.52
2023-04-05T04:39:39.825Z,3.59
2023-04-05T04:42:33.954Z,3.60
2023-04-05T04:45:29.160Z,3.61
2023-04-05T04:48:26.749Z,3.68
2023-04-05T04:51:12.799Z,3.69
2023-04-05T04:53:41.228Z,3.65
2023-04-05T04:56:10.403Z,3.65
2023-04-05T04:58:38.411Z,3.65
2023-04-05T05:01:10.197Z,3.64
2023-04-05T05:03:40.168Z,3.70
2023-04-05T05:07:13.087Z,3.75
2023-04-05T05:09:41.192Z,3.74
2023-04-05T05:12:13.360Z,3.72
2023-04-05T05:14:42.220Z,3.68
2023-04-05T05:17:10.431Z,3.68
2023-04-05T05:19:39.234Z,3.68
2023-04-05T05:22:07.637Z,3.62
2023-04-05T05:24:40.334Z,3.62
2023-04-05T05:27:08.318Z,3.63
2023-04-05T05:29:39.682Z,3.57
2023-04-05T05:32:09.466Z,3.57
2023-04-05T05:34:39.892Z,3.60
2023-04-05T05:37:09.585Z,3.56
2023-04-05T05:39:38.069Z,3.56
2023-04-05T05:42:06.800Z,3.58
2023-04-05T05:44:36.005Z,3.54
2023-04-05T05:47:05.422Z,3.57
2023-04-05T05:49:33.462Z,3.61
2023-04-05T05:52:04.038Z,3.61
2023-04-05T05:54:33.102Z,3.61
2023-04-05T05:57:02.551Z,3.58
2023-04-05T05:59:31.126Z,3.54
2023-04-05T06:01:59.316Z,3.55
2023-04-05T06:04:29.087Z,3.60
2023-04-05T06:06:57.971Z,3.65
2023-04-05T06:09:30.986Z,3.65
2023-04-05T06:11:59.793Z,3.68
2023-04-05T06:14:29.927Z,3.69
2023-04-05T06:17:06.187Z,3.62
2023-04-05T06:19:35.273Z,3.65
2023-04-05T06:22:03.312Z,3.71
2023-04-05T06:24:33.042Z,3.72
2023-04-05T06:27:02.322Z,3.74
2023-04-05T06:29:32.823Z,3.76
2023-04-05T06:32:01.943Z,3.69
2023-04-05T06:34:30.748Z,3.69
2023-04-05T06:37:00.557Z,3.71
2023-04-05T06:39:28.938Z,3.66
2023-04-05T06:41:57.931Z,3.68
2023-04-05T06:44:27.620Z,3.72
2023-04-05T06:46:55.896Z,3.69
2023-04-05T06:49:23.900Z,3.68
2023-04-05T06:51:52.311Z,3.65
2023-04-05T06:54:25.052Z,3.61
2023-04-05T06:56:53.362Z,3.67
2023-04-05T06:59:21.520Z,3.71
2023-04-05T07:01:50.633Z,3.67
2023-04-05T07:04:19.039Z,3.63
2023-04-05T07:06:47.253Z,3.61
2023-04-05T07:09:18.534Z,3.60
2023-04-05T07:11:47.907Z,3.61
2023-04-05T07:14:16.310Z,3.62
2023-04-05T07:16:52.565Z,3.59
2023-04-05T07:19:21.213Z,3.59
2023-04-05T07:21:49.446Z,3.58
2023-04-05T07:24:17.651Z,3.61
2023-04-05T07:26:46.445Z,3.59
2023-04-05T07:29:18.991Z,3.55
2023-04-05T07:31:48.568Z,3.56
2023-04-05T07:34:17.185Z,3.61
2023-04-05T07:36:47.293Z,3.68
2023-04-05T07:39:17.545Z,3.71
2023-04-05T07:41:47.804Z,3.78
2023-04-05T07:44:17.614Z,3.88
2023-04-05T07:46:49.057Z,3.92
2023-04-05T07:49:18.272Z,3.99
2023-04-05T07:51:48.245Z,4.03
2023-04-05T07:54:16.533Z,4.10
2023-04-05T07:56:51.952Z,4.18
2023-04-05T07:59:20.975Z,4.17
2023-04-05T08:01:49.161Z,4.24
2023-04-05T08:04:17.156Z,4.29
2023-04-05T08:06:48.633Z,4.28
2023-04-05T08:09:17.362Z,4.37
2023-04-05T08:11:45.471Z,4.47
2023-04-05T08:14:14.366Z,4.50
2023-04-05T08:16:43.708Z,4.53
2023-04-05T08:19:15.575Z,4.56
2023-04-05T08:21:43.999Z,4.63
2023-04-05T08:24:12.115Z,4.62
2023-04-05T08:26:41.954Z,4.63
2023-04-05T08:29:12.292Z,4.67
2023-04-05T08:31:44.469Z,4.61
2023-04-05T08:34:12.995Z,4.56
2023-04-05T08:36:43.121Z,4.55
2023-04-05T08:39:11.978Z,4.58
2023-04-05T08:41:41.952Z,4.62
2023-04-05T08:44:10.877Z,4.68
2023-04-05T08:46:39.544Z,4.70
2023-04-05T08:49:08.684Z,4.77
2023-04-05T08:51:39.378Z,4.78
2023-04-05T08:54:09.918Z,4.80
2023-04-05T08:56:38.051Z,4.84
2023-04-05T08:59:13.475Z,4.84
2023-04-05T09:01:44.230Z,4.87
2023-04-05T09:04:21.496Z,4.91
2023-04-05T09:06:51.221Z,4.91
2023-04-05T09:09:21.848Z,4.88
2023-04-05T09:12:18.880Z,4.89
2023-04-05T09:14:55.615Z,4.87
2023-04-05T09:17:31.881Z,4.82
2023-04-05T09:20:17.022Z,4.83
2023-04-05T09:22:47.242Z,4.88
2023-04-05T09:25:41.560Z,4.89
2023-04-05T09:28:12.897Z,4.93
2023-04-05T09:30:48.747Z,4.92
2023-04-05T09:33:20.262Z,4.95
2023-04-05T09:35:51.164Z,5.00
2023-04-05T09:38:26.972Z,5.04
2023-04-05T09:40:57.929Z,5.03
2023-04-05T09:43:42.197Z,5.12
2023-04-05T09:46:38.534Z,5.09
2023-04-05T09:49:10.780Z,5.04
2023-04-05T09:51:47.938Z,5.03
2023-04-05T09:54:18.786Z,5.03
2023-04-05T09:57:26.832Z,5.02
2023-04-05T09:59:58.253Z,5.04
2023-04-05T10:02:49.443Z,5.09
2023-04-05T10:05:28.764Z,5.10
2023-04-05T10:08:08.930Z,5.07
2023-04-05T10:10:47.530Z,5.12
2023-04-05T10:13:22.847Z,5.09
2023-04-05T10:16:09.363Z,5.15
2023-04-05T10:18:58.338Z,5.21
2023-04-05T10:21:34.486Z,5.23
2023-04-05T10:24:19.349Z,5.28
2023-04-05T10:27:17.670Z,5.33
2023-04-05T10:30:09.427Z,5.37
2023-04-05T10:32:42.804Z,5.45
2023-04-05T10:35:17.267Z,5.54
2023-04-05T10:38:17.410Z,5.61
2023-04-05T10:40:48.527Z,5.66
2023-04-05T10:43:23.544Z,5.63
2023-04-05T10:45:53.688Z,5.61
2023-04-05T10:48:50.688Z,5.59
2023-04-05T10:51:21.212Z,5.58
2023-04-05T10:53:50.512Z,5.61
2023-04-05T10:56:20.415Z,5.62
2023-04-05T10:58:49.867Z,5.69
2023-04-05T11:01:19.291Z,5.72
2023-04-05T11:03:50.831Z,5.76
2023-04-05T11:06:33.677Z,5.76
2023-04-05T11:09:20.422Z,5.79
2023-04-05T11:11:51.728Z,5.85
2023-04-05T11:14:36.236Z,5.87
2023-04-05T11:17:28.400Z,5.91
2023-04-05T11:20:05.670Z,5.95
2023-04-05T11:22:35.276Z,5.96
2023-04-05T11:25:06.665Z,6.01
2023-04-05T11:27:42.138Z,6.02
2023-04-05T11:30:15.887Z,6.00
2023-04-05T11:32:45.875Z,6.07
2023-04-05T11:35:15.869Z,6.12
2023-04-05T11:38:02.894Z,6.13
2023-04-05T11:40:33.955Z,6.19
2023-04-05T11:43:04.178Z,6.26
2023-04-05T11:45:33.313Z,6.33
2023-04-05T11:48:09.704Z,6.34
2023-04-05T11:50:39.441Z,6.37
2023-04-05T11:53:10.380Z,6.41
2023-04-05T11:55:41.104Z,6.45
2023-04-05T11:58:13.859Z,6.47
2023-04-05T12:00:43.104Z,6.46
2023-04-05T12:03:25.157Z,6.49
2023-04-05T12:05:55.051Z,6.50
2023-04-05T12:08:24.325Z,6.45
2023-04-05T12:11:02.821Z,6.43
2023-04-05T12:13:37.856Z,6.41
2023-04-05T12:16:08.497Z,6.43
2023-04-05T12:18:38.257Z,6.43
2023-04-05T12:21:11.429Z,6.40
2023-04-05T12:23:39.878Z,6.38
2023-04-05T12:26:09.822Z,6.39
2023-04-05T12:28:56.576Z,6.37
2023-04-05T12:31:44.870Z,6.34
2023-04-05T12:34:14.443Z,6.35
2023-04-05T12:36:45.819Z,6.38
2023-04-05T12:39:16.868Z,6.43
2023-04-05T12:41:45.456Z,6.47
2023-04-05T12:44:16.526Z,6.53
2023-04-05T12:46:46.882Z,6.59
2023-04-05T12:49:18.765Z,6.66
2023-04-05T12:51:48.568Z,6.71
2023-04-05T12:54:23.787Z,6.77
2023-04-05T12:56:54.918Z,6.77
2023-04-05T12:59:24.234Z,6.80
2023-04-05T13:01:53.382Z,6.86
2023-04-05T13:04:30.392Z,6.90
2023-04-05T13:06:59.732Z,6.94
2023-04-05T13:09:29.965Z,6.94
2023-04-05T13:11:58.781Z,6.89
2023-04-05T13:14:28.493Z,6.88
2023-04-05T13:16:57.533Z,6.87
2023-04-05T13:19:26.414Z,6.81
2023-04-05T13:21:55.399Z,6.78
2023-04-05T13:24:24.372Z,6.77
2023-04-05T13:26:52.931Z,6.75
2023-04-05T13:29:21.867Z,6.76
2023-04-05T13:31:51.470Z,6.77
2023-04-05T13:34:20.741Z,6.74
2023-04-05T13:36:49.892Z,6.71
2023-04-05T13:39:21.927Z,6.68
2023-04-05T13:41:50.334Z,6.61
2023-04-05T13:44:19.483Z,6.57
2023-04-05T13:46:49.147Z,6.52
2023-04-05T13:49:17.953Z,6.51
2023-04-05T13:51:48.577Z,6.50
2023-04-05T13:54:17.503Z,6.50
2023-04-05T13:56:49.160Z,6.53
2023-04-05T13:59:19.718Z,6.54
2023-04-05T14:01:48.344Z,6.52
2023-04-05T14:04:16.483Z,6.51
2023-04-05T14:06:45.319Z,6.53
2023-04-05T14:09:13.883Z,6.55
2023-04-05T14:11:47.380Z,6.56
2023-04-05T14:14:16.721Z,6.51
2023-04-05T14:16:47.465Z,6.46
2023-04-05T14:19:18.614Z,6.42
2023-04-05T14:21:47.481Z,6.42
2023-04-05T14:24:21.489Z,6.44
2023-04-05T14:26:50.507Z,6.45
2023-04-05T14:29:18.848Z,6.47
2023-04-05T14:31:47.266Z,6.48
2023-04-05T14:34:16.437Z,6.48
2023-04-05T14:36:44.986Z,6.50
2023-04-05T14:39:13.464Z,6.50
2023-04-05T14:41:41.676Z,6.50
2023-04-05T14:44:10.140Z,6.49
2023-04-05T14:46:38.701Z,6.46
2023-04-05T14:49:06.993Z,6.42
2023-04-05T14:51:36.894Z,6.42
2023-04-05T14:54:06.608Z,6.46
2023-04-05T14:56:38.398Z,6.48
2023-04-05T14:59:06.591Z,6.48
2023-04-05T15:01:35.090Z,6.51
2023-04-05T15:04:03.906Z,6.52
2023-04-05T15:06:32.507Z,6.49
2023-04-05T15:09:01.165Z,6.45
2023-04-05T15:11:30.315Z,6.46
2023-04-05T15:13:58.930Z,6.46
2023-04-05T15:16:27.601Z,6.47
2023-04-05T15:18:59.654Z,6.46
2023-04-05T15:21:27.987Z,6.49
2023-04-05T15:23:56.180Z,6.51
2023-04-05T15:26:24.591Z,6.50
2023-04-05T15:28:52.689Z,6.53
2023-04-05T15:31:20.828Z,6.47
2023-04-05T15:33:49.193Z,6.46
2023-04-05T15:36:17.550Z,6.48
2023-04-05T15:38:46.225Z,6.46
2023-04-05T15:41:14.398Z,6.43
2023-04-05T15:43:47.048Z,6.42
2023-04-05T15:46:15.786Z,6.40
2023-04-05T15:48:44.201Z,6.42
2023-04-05T15:51:12.598Z,6.43
2023-04-05T15:53:40.688Z,6.45
2023-04-05T15:56:09.354Z,6.45
2023-04-05T15:58:37.642Z,6.47
2023-04-05T16:01:06.445Z,6.46
2023-04-05T16:03:36.166Z,6.44
2023-04-05T16:06:04.294Z,6.46
2023-04-05T16:08:33.467Z,6.45
2023-04-05T16:11:01.629Z,6.46
2023-04-05T16:13:34.299Z,6.49
2023-04-05T16:16:02.752Z,6.46
2023-04-05T16:18:32.660Z,6.47
2023-04-05T16:21:08.731Z,6.50
2023-04-05T16:23:38.367Z,6.50
2023-04-05T16:26:06.528Z,6.51
2023-04-05T16:28:35.164Z,6.50
2023-04-05T16:31:03.683Z,6.47
2023-04-05T16:33:33.141Z,6.46
2023-04-05T16:36:02.088Z,6.43
2023-04-05T16:38:30.253Z,6.39
2023-04-05T16:40:59.012Z,6.44
2023-04-05T16:43:28.010Z,6.47
2023-04-05T16:45:56.295Z,6.48
2023-04-05T16:48:32.703Z,6.47
2023-04-05T16:51:00.965Z,6.42
2023-04-05T16:53:30.285Z,6.41
2023-04-05T16:55:58.459Z,6.43
2023-04-05T16:58:26.735Z,6.43
2023-04-05T17:00:58.890Z,6.43
2023-04-05T17:03:27.910Z,6.44
2023-04-05T17:05:56.668Z,6.45
2023-04-05T17:08:25.685Z,6.47
2023-04-05T17:10:54.015Z,6.47
2023-04-05T17:13:22.083Z,6.47
2023-04-05T17:15:50.795Z,6.45
2023-04-05T17:18:18.879Z,6.45
2023-04-05T17:20:47.231Z,6.46
2023-04-05T17:25:25.154Z,6.49
2023-04-05T17:27:54.294Z,6.50
2023-04-05T17:30:23.104Z,6.53
2023-04-05T17:32:51.441Z,6.52
2023-04-05T17:35:18.940Z,6.55
2023-04-05T17:37:47.000Z,6.50
2023-04-05T17:40:14.598Z,6.48
2023-04-05T17:42:42.131Z,6.54
2023-04-05T17:45:09.486Z,6.54
2023-04-05T17:47:36.789Z,6.49
2023-04-05T17:50:04.021Z,6.50
2023-04-05T17:52:31.458Z,6.50
2023-04-05T17:54:58.071Z,6.49
2023-04-05T17:57:25.490Z,6.50
2023-04-05T17:59:52.432Z,6.46
2023-04-05T18:02:19.738Z,6.47
2023-04-05T18:04:46.873Z,6.50
2023-04-05T18:07:13.769Z,6.47
2023-04-05T18:09:42.483Z,6.46
2023-04-05T18:12:10.071Z,6.49
2023-04-05T18:14:37.267Z,6.53
2023-04-05T18:17:06.647Z,6.53
2023-04-05T18:19:33.765Z,6.57
2023-04-05T18:22:00.470Z,6.65
2023-04-05T18:24:27.296Z,6.65
2023-04-05T18:26:54.695Z,6.65
2023-04-05T18:29:28.761Z,6.70
2023-04-05T18:31:56.181Z,6.74
2023-04-05T18:34:23.451Z,6.68
2023-04-05T18:36:53.592Z,6.68
2023-04-05T18:39:21.145Z,6.73
2023-04-05T18:41:47.875Z,6.72
2023-04-05T18:44:15.789Z,6.75
2023-04-05T18:46:43.781Z,6.82
2023-04-05T18:49:11.010Z,6.82
2023-04-05T18:51:37.990Z,6.83
2023-04-05T18:54:08.963Z,6.84
2023-04-05T18:56:36.193Z,6.80
2023-04-05T18:59:02.909Z,6.82
2023-04-05T19:01:33.148Z,6.87
2023-04-05T19:04:00.046Z,6.85
2023-04-05T19:06:27.580Z,6.86
2023-04-05T19:08:55.714Z,6.90
2023-04-05T19:11:22.667Z,6.86
2023-04-05T19:13:50.154Z,6.86
2023-04-05T19:16:18.099Z,6.93
2023-04-05T19:18:45.233Z,6.92
2023-04-05T19:21:17.080Z,6.94
2023-04-05T19:23:44.601Z,6.95
2023-04-05T19:26:11.626Z,6.90
2023-04-05T19:28:39.087Z,6.90
2023-04-05T19:31:06.608Z,6.95
2023-04-05T19:33:34.451Z,6.95
2023-04-05T19:36:01.561Z,7.00
2023-04-05T19:38:29.805Z,7.02
2023-04-05T19:40:57.292Z,7.05
2023-04-05T19:43:25.684Z,7.09
2023-04-05T19:45:55.871Z,7.05
2023-04-05T19:48:43.778Z,7.06
2023-04-05T19:51:13.457Z,7.10
2023-04-05T19:53:49.679Z,7.06
2023-04-05T19:56:36.683Z,7.06
2023-04-05T19:59:08.355Z,7.10
2023-04-05T20:01:39.537Z,7.09
2023-04-05T20:04:11.830Z,7.13
2023-04-05T20:06:41.897Z,7.13
2023-04-05T20:09:10.950Z,7.17
2023-04-05T20:11:38.010Z,7.18
2023-04-05T20:14:05.898Z,7.21
2023-04-05T20:16:34.973Z,7.19
2023-04-05T20:19:03.946Z,7.22
2023-04-05T20:21:31.749Z,7.26
2023-04-05T20:24:01.933Z,7.21
2023-04-05T20:26:30.404Z,7.23
2023-04-05T20:29:14.114Z,7.27
2023-04-05T20:31:41.432Z,7.26
2023-04-05T20:34:08.888Z,7.31
2023-04-05T20:36:38.102Z,7.39
2023-04-05T20:39:08.095Z,7.38
2023-04-05T20:41:35.822Z,7.34
2023-04-05T20:44:05.609Z,7.39
2023-04-05T20:46:33.535Z,7.43
2023-04-05T20:49:00.711Z,7.44
2023-04-05T20:51:33.507Z,7.48
2023-04-05T20:54:01.591Z,7.45
2023-04-05T20:56:28.734Z,7.46
2023-04-05T20:58:56.131Z,7.48
2023-04-05T21:01:23.081Z,7.46
2023-04-05T21:03:53.043Z,7.46
2023-04-05T21:06:20.022Z,7.46
2023-04-05T21:08:46.649Z,7.41
2023-04-05T21:11:15.576Z,7.37
2023-04-05T21:13:42.885Z,7.39
2023-04-05T21:16:09.803Z,7.40
2023-04-05T21:18:41.470Z,7.38
2023-04-05T21:21:08.235Z,7.36
2023-04-05T21:23:35.124Z,7.42
2023-04-05T21:26:03.642Z,7.42
2023-04-05T21:28:30.916Z,7.46
2023-04-05T21:30:58.329Z,7.46
2023-04-05T21:33:25.313Z,7.45
2023-04-05T21:35:53.133Z,7.46
2023-04-05T21:38:20.560Z,7.45
2023-04-05T21:40:49.671Z,7.45
2023-04-05T21:43:16.396Z,7.52
2023-04-05T21:45:43.174Z,7.52
2023-04-05T21:48:10.101Z,7.53
2023-04-05T21:50:37.198Z,7.57
2023-04-05T21:53:04.826Z,7.55
2023-04-05T21:55:34.772Z,7.56
2023-04-05T21:58:02.071Z,7.61
2023-04-05T22:00:29.742Z,7.60
2023-04-05T22:02:58.298Z,7.59
2023-04-05T22:05:37.351Z,7.64
2023-04-05T22:08:10.583Z,7.63
2023-04-05T22:10:38.135Z,7.65
2023-04-05T22:13:05.436Z,7.71
2023-04-05T22:15:34.874Z,7.71
2023-04-05T22:18:02.268Z,7.72
2023-04-05T22:20:29.057Z,7.78
2023-04-05T22:22:56.066Z,7.76
2023-04-05T22:25:29.662Z,7.75
2023-04-05T22:28:03.211Z,7.78
2023-04-05T22:30:43.730Z,7.80
2023-04-05T22:33:12.866Z,7.81
2023-04-05T22:35:41.504Z,7.85
2023-04-05T22:38:13.241Z,7.82
2023-04-05T22:40:40.942Z,7.79
2023-04-05T22:43:11.444Z,7.82
2023-04-05T22:45:38.905Z,7.82
2023-04-05T22:48:05.906Z,7.83
2023-04-05T22:50:34.665Z,7.90
2023-04-05T22:53:01.366Z,7.89
2023-04-05T22:55:31.685Z,7.88
2023-04-05T22:57:58.843Z,7.93
2023-04-05T23:00:25.679Z,7.90
2023-04-05T23:02:52.958Z,7.88
2023-04-05T23:05:20.857Z,7.91
2023-04-05T23:07:47.705Z,7.89
2023-04-05T23:10:15.088Z,7.91
2023-04-05T23:12:46.900Z,7.97
2023-04-05T23:15:14.783Z,7.97
2023-04-05T23:17:41.891Z,7.93
2023-04-05T23:20:10.317Z,7.90
2023-04-05T23:22:37.266Z,7.93
2023-04-05T23:25:05.449Z,7.96
2023-04-05T23:27:32.627Z,7.92
2023-04-05T23:29:59.286Z,7.94
2023-04-05T23:32:26.250Z,8.03
2023-04-05T23:34:52.903Z,8.00
2023-04-05T23:37:19.842Z,7.99
2023-04-05T23:39:47.126Z,8.04
2023-04-05T23:42:16.855Z,8.03
2023-04-05T23:44:44.389Z,8.02
2023-04-05T23:47:11.062Z,8.06
2023-04-05T23:49:38.235Z,8.05
2023-04-05T23:52:05.315Z,8.02
2023-04-05T23:54:38.374Z,8.05
2023-04-05T23:57:05.183Z,8.01
2023-04-05T23:59:32.066Z,8.01
